Time;durP1;ratioP1;P1;durP2;ratioP2;P2;SDS_P1;SDS_P2;PMS_P1;PMS_P2;Temp;Humidity;BMP_temperature;BMP_pressure;BME280_temperature;BME280_humidity;BME280_pressure;Samples;Min_cycle;Max_cycle;Signal;HPM_P1;HPM_P2
2023/09/22 00:00:14;;;;;;;9.07;2.40;;;;;;;17.99;100.00;93703.19;5053770;28;20063;-81
2023/09/22 00:02:40;;;;;;;8.18;2.30;;;;;;;18.19;100.00;93699.69;5037363;28;20087;-81
2023/09/22 00:05:09;;;;;;;9.15;2.50;;;;;;;18.26;100.00;93699.13;5037189;28;20032;-81
2023/09/22 00:07:35;;;;;;;8.90;2.33;;;;;;;18.34;100.00;93700.91;5037503;28;20460;-81
2023/09/22 00:10:00;;;;;;;7.30;2.63;;;;;;;18.02;100.00;93683.97;5054757;28;20128;-81
2023/09/22 00:12:28;;;;;;;10.27;2.15;;;;;;;18.02;100.00;93687.44;5037345;28;20020;-81
2023/09/22 00:14:54;;;;;;;11.43;2.63;;;;;;;18.15;100.00;93684.81;5057770;28;20021;-81
2023/09/22 00:17:19;;;;;;;10.23;2.53;;;;;;;18.30;100.00;93683.34;5057352;28;20029;-81
2023/09/22 00:19:45;;;;;;;10.93;2.40;;;;;;;18.41;100.00;93679.13;5040905;28;20085;-81
2023/09/22 00:22:10;;;;;;;7.65;2.58;;;;;;;18.56;100.00;93682.22;5058621;28;20031;-81
2023/09/22 00:24:36;;;;;;;7.10;2.50;;;;;;;18.88;100.00;93683.13;5057385;28;20442;-80
2023/09/22 00:27:01;;;;;;;10.68;2.38;;;;;;;18.77;100.00;93685.47;5040815;28;20027;-81
2023/09/22 00:29:27;;;;;;;10.88;2.65;;;;;;;18.79;100.00;93683.28;5058490;28;20051;-81
2023/09/22 00:31:52;;;;;;;14.30;2.95;;;;;;;18.75;100.00;93679.72;5057256;28;20373;-80
2023/09/22 00:34:17;;;;;;;10.38;2.50;;;;;;;18.78;100.00;93681.69;5040776;28;20090;-80
2023/09/22 00:36:43;;;;;;;13.30;2.83;;;;;;;18.79;100.00;93664.69;5057330;28;20070;-80
2023/09/22 00:39:09;;;;;;;9.80;2.58;;;;;;;18.77;100.00;93679.41;5056955;28;20187;-81
2023/09/22 00:41:34;;;;;;;11.60;2.30;;;;;;;18.73;100.00;93679.28;5057200;28;20017;-80
2023/09/22 00:44:00;;;;;;;10.40;2.50;;;;;;;18.71;100.00;93662.16;5057004;28;20124;-81
2023/09/22 00:46:26;;;;;;;8.82;2.58;;;;;;;18.75;100.00;93655.84;5040628;28;20123;-81
2023/09/22 00:48:52;;;;;;;7.70;2.33;;;;;;;18.67;100.00;93672.69;5057174;28;20024;-81
2023/09/22 00:51:21;;;;;;;7.72;2.30;;;;;;;18.58;100.00;93674.69;5057106;28;20032;-81
2023/09/22 00:53:49;;;;;;;12.43;2.30;;;;;;;18.51;100.00;93668.06;5040772;28;20029;-81
2023/09/22 00:56:21;;;;;;;9.63;2.50;;;;;;;18.61;100.00;93661.53;5056737;28;20021;-81
2023/09/22 00:58:49;;;;;;;13.70;2.30;;;;;;;18.77;100.00;93663.47;5040324;28;20036;-80
2023/09/22 01:01:15;;;;;;;6.72;2.50;;;;;;;18.72;100.00;93659.19;5056918;28;20124;-81
2023/09/22 01:03:41;;;;;;;7.40;2.42;;;;;;;18.70;100.00;93655.31;5056447;28;20029;-80
2023/09/22 01:06:10;;;;;;;8.90;2.20;;;;;;;18.62;100.00;93651.69;5056557;28;20032;-81
2023/09/22 01:08:36;;;;;;;10.52;2.63;;;;;;;18.64;100.00;93657.41;5040161;28;20033;-81
2023/09/22 01:11:01;;;;;;;13.88;2.72;;;;;;;18.78;100.00;93657.81;5056275;28;20397;-81
2023/09/22 01:13:27;;;;;;;6.05;2.28;;;;;;;18.86;100.00;93644.75;5039653;28;20032;-81
2023/09/22 01:15:54;;;;;;;7.88;2.67;;;;;;;18.83;100.00;93651.50;5047498;28;20421;-81
2023/09/22 01:18:19;;;;;;;9.30;2.50;;;;;;;18.66;100.00;93641.97;5039263;28;20029;-81
2023/09/22 01:20:45;;;;;;;10.68;2.45;;;;;;;18.67;100.00;93650.69;5056216;28;20080;-81
2023/09/22 01:23:12;;;;;;;11.68;2.75;;;;;;;18.68;100.00;93647.69;5056015;28;20102;-81
2023/09/22 01:25:44;;;;;;;7.72;2.25;;;;;;;18.70;100.00;93647.34;5039347;28;20392;-81
2023/09/22 01:28:10;;;;;;;6.97;2.45;;;;;;;18.61;100.00;93648.28;5055958;28;20032;-81
2023/09/22 01:30:36;;;;;;;8.55;2.35;;;;;;;18.55;100.00;93640.88;5039725;28;20123;-81
2023/09/22 01:33:04;;;;;;;11.98;2.30;;;;;;;18.71;100.00;93647.03;5056179;28;20151;-81
2023/09/22 01:35:33;;;;;;;7.10;2.45;;;;;;;18.63;100.00;93655.88;5056409;28;20033;-81
2023/09/22 01:38:05;;;;;;;13.95;2.50;;;;;;;18.68;100.00;93660.19;5056558;28;20021;-81
2023/09/22 01:40:31;;;;;;;7.00;2.50;;;;;;;18.69;100.00;93661.72;5056916;28;20037;-81
2023/09/22 01:42:56;;;;;;;11.57;2.63;;;;;;;18.82;100.00;93652.63;5055372;28;20029;-81
2023/09/22 01:45:22;;;;;;;8.55;2.03;;;;;;;18.98;100.00;93654.56;5039249;28;20038;-81
2023/09/22 01:47:47;;;;;;;10.95;2.45;;;;;;;19.07;100.00;93653.31;5056921;28;20029;-81
2023/09/22 01:50:12;;;;;;;10.07;2.47;;;;;;;19.12;100.00;93660.28;5038934;28;20025;-81
2023/09/22 01:52:38;;;;;;;10.27;2.20;;;;;;;19.45;100.00;93642.53;5047770;28;20029;-81
2023/09/22 01:55:05;;;;;;;11.27;3.05;;;;;;;19.14;100.00;93638.72;5057056;28;20323;-81
2023/09/22 01:57:31;;;;;;;14.25;2.85;;;;;;;19.30;100.00;93630.78;5055730;28;20032;-81
2023/09/22 01:59:57;;;;;;;9.30;2.25;;;;;;;19.14;100.00;93625.44;5039370;28;20064;-81
2023/09/22 02:02:22;;;;;;;13.27;2.90;;;;;;;19.24;100.00;93635.56;5055676;28;20083;-82
2023/09/22 02:04:48;;;;;;;11.85;2.90;;;;;;;19.35;100.00;93630.53;5056169;28;20029;-81
2023/09/22 02:07:14;;;;;;;10.73;2.50;;;;;;;19.27;100.00;93636.75;5056816;28;20025;-81
2023/09/22 02:09:39;;;;;;;9.48;2.50;;;;;;;19.31;100.00;93625.09;5055701;28;20033;-81
2023/09/22 02:12:05;;;;;;;9.88;2.30;;;;;;;19.36;100.00;93645.34;5055472;28;20035;-81
2023/09/22 02:14:30;;;;;;;9.30;2.30;;;;;;;19.33;100.00;93640.72;5055379;28;20462;-81
2023/09/22 02:16:58;;;;;;;4.57;1.88;;;;;;;19.30;100.00;93638.75;5056578;28;20032;-82
2023/09/22 02:19:24;;;;;;;11.10;2.85;;;;;;;19.26;100.00;93636.00;5039164;28;20135;-81
2023/09/22 02:21:50;;;;;;;10.23;2.47;;;;;;;19.26;100.00;93630.69;5055346;28;20029;-81
2023/09/22 02:24:16;;;;;;;11.35;2.60;;;;;;;19.21;100.00;93615.75;5055211;28;20075;-82
2023/09/22 02:26:41;;;;;;;11.38;2.55;;;;;;;19.27;100.00;93608.31;5055147;28;20024;-81
2023/09/22 02:29:07;;;;;;;8.75;2.42;;;;;;;19.32;100.00;93605.41;5055164;28;20110;-81
2023/09/22 02:31:32;;;;;;;12.15;2.42;;;;;;;19.20;100.00;93602.81;5055092;28;20024;-81
2023/09/22 02:33:58;;;;;;;9.40;2.08;;;;;;;19.06;100.00;93588.06;5056366;28;20029;-81
2023/09/22 02:36:23;;;;;;;13.00;2.25;;;;;;;19.01;100.00;93592.84;5054263;28;20443;-82
2023/09/22 02:38:49;;;;;;;9.77;2.30;;;;;;;19.05;100.00;93604.34;5038569;28;20032;-81
2023/09/22 02:41:15;;;;;;;8.80;2.15;;;;;;;19.02;100.00;93605.03;5055314;28;20059;-81
2023/09/22 02:43:40;;;;;;;12.57;2.30;;;;;;;19.04;100.00;93602.81;5056198;28;20024;-82
2023/09/22 02:46:06;;;;;;;16.95;3.03;;;;;;;19.07;100.00;93597.56;5056498;28;20123;-81
2023/09/22 02:48:32;;;;;;;10.30;2.50;;;;;;;18.94;100.00;93593.44;5056341;28;20025;-81
2023/09/22 02:50:57;;;;;;;16.55;2.53;;;;;;;18.87;100.00;93603.84;5056461;28;20039;-81
2023/09/22 02:53:23;;;;;;;16.52;2.90;;;;;;;18.84;100.00;93602.63;5056590;28;20021;-81
2023/09/22 02:55:48;;;;;;;8.95;2.63;;;;;;;18.78;100.00;93604.00;5056110;28;20032;-81
2023/09/22 02:58:14;;;;;;;13.98;2.90;;;;;;;18.79;100.00;93606.31;5056259;28;20052;-81
2023/09/22 03:00:44;;;;;;;10.57;2.47;;;;;;;18.87;100.00;93601.97;5039681;28;20028;-81
2023/09/22 03:03:16;;;;;;;5.43;2.30;;;;;;;18.87;100.00;93601.19;5055778;28;20033;-81
2023/09/22 03:05:41;;;;;;;6.47;2.30;;;;;;;18.88;100.00;93606.16;5052706;28;20037;-81
2023/09/22 03:08:06;;;;;;;9.93;2.70;;;;;;;18.96;100.00;93609.78;5052618;28;20374;-81
2023/09/22 03:10:32;;;;;;;8.00;2.40;;;;;;;18.91;100.00;93607.34;5037416;28;20037;-80
2023/09/22 03:12:57;;;;;;;11.82;2.25;;;;;;;18.76;100.00;93599.00;5036324;28;20029;-81
2023/09/22 03:15:24;;;;;;;7.93;2.30;;;;;;;18.91;100.00;93592.22;5037312;28;20036;-80
2023/09/22 03:17:49;;;;;;;12.52;2.65;;;;;;;18.73;100.00;93612.97;5035723;28;20037;-80
2023/09/22 03:20:16;;;;;;;12.32;2.33;;;;;;;18.65;100.00;93617.28;5037086;28;20033;-81
2023/09/22 03:22:42;;;;;;;10.90;2.92;;;;;;;18.80;100.00;93604.41;5036064;28;20033;-81
2023/09/22 03:25:08;;;;;;;8.73;2.20;;;;;;;18.70;100.00;93596.94;5019391;28;20036;-81
2023/09/22 03:27:34;;;;;;;8.38;2.60;;;;;;;18.59;100.00;93610.69;5035849;28;20104;-81
2023/09/22 03:30:01;;;;;;;15.82;2.67;;;;;;;18.65;100.00;93609.34;5052407;28;20069;-81
2023/09/22 03:32:27;;;;;;;12.50;2.47;;;;;;;18.64;100.00;93601.72;5052399;28;20036;-81
2023/09/22 03:34:54;;;;;;;5.78;2.25;;;;;;;18.73;100.00;93602.34;5036998;28;20033;-81
2023/09/22 03:37:19;;;;;;;12.88;3.28;;;;;;;18.67;100.00;93593.09;5035673;28;20029;-81
2023/09/22 03:39:45;;;;;;;11.63;2.88;;;;;;;18.65;100.00;93612.00;5035872;28;20029;-81
2023/09/22 03:42:13;;;;;;;9.02;2.25;;;;;;;18.75;100.00;93605.44;5035690;28;20500;-81
2023/09/22 03:44:39;;;;;;;9.45;2.70;;;;;;;18.59;100.00;93607.25;5035541;28;20057;-81
2023/09/22 03:47:05;;;;;;;8.20;2.53;;;;;;;18.68;100.00;93605.25;5018778;28;20037;-81
2023/09/22 03:49:31;;;;;;;9.13;3.00;;;;;;;18.77;100.00;93595.25;5051830;28;20060;-81
2023/09/22 03:51:57;;;;;;;8.85;3.15;;;;;;;18.57;100.00;93604.16;5052020;28;20030;-81
2023/09/22 03:54:22;;;;;;;10.93;2.83;;;;;;;18.73;100.00;93599.69;5052156;28;20199;-81
2023/09/22 03:56:48;;;;;;;10.07;3.03;;;;;;;18.93;100.00;93581.25;5052103;28;20395;-81
2023/09/22 03:59:13;;;;;;;14.00;2.42;;;;;;;18.85;100.00;93579.53;5052032;28;20167;-81
2023/09/22 04:01:39;;;;;;;11.63;2.55;;;;;;;18.80;100.00;93580.53;5035548;28;20495;-81
2023/09/22 04:04:05;;;;;;;12.55;2.60;;;;;;;18.77;100.00;93560.75;5035121;28;20029;-81
2023/09/22 04:06:31;;;;;;;10.93;2.90;;;;;;;18.72;100.00;93570.84;5037570;28;20033;-81
2023/09/22 04:08:57;;;;;;;9.57;2.30;;;;;;;18.74;100.00;93560.69;5048517;28;20178;-81
2023/09/22 04:11:22;;;;;;;13.38;2.55;;;;;;;18.74;100.00;93566.75;5018954;28;20119;-81
2023/09/22 04:13:48;;;;;;;11.02;2.60;;;;;;;18.96;100.00;93567.31;5035318;28;20036;-81
2023/09/22 04:16:14;;;;;;;9.93;2.65;;;;;;;18.87;100.00;93577.31;5035262;28;20036;-81
2023/09/22 04:18:40;;;;;;;12.77;2.90;;;;;;;18.86;100.00;93573.09;5034933;28;20029;-81
2023/09/22 04:21:08;;;;;;;11.30;2.25;;;;;;;18.86;100.00;93571.22;5019019;28;20320;-81
2023/09/22 04:23:36;;;;;;;14.00;2.90;;;;;;;18.84;100.00;93586.72;5035329;28;20029;-81
2023/09/22 04:26:09;;;;;;;9.82;2.35;;;;;;;19.02;100.00;93586.44;5036345;28;20096;-81
2023/09/22 04:28:35;;;;;;;10.20;2.58;;;;;;;19.00;100.00;93589.44;5033769;28;20036;-81
2023/09/22 04:31:01;;;;;;;10.35;3.15;;;;;;;18.94;100.00;93575.59;5028329;28;20449;-81
2023/09/22 04:33:26;;;;;;;8.05;2.42;;;;;;;18.84;100.00;93597.31;5037312;28;20118;-82
2023/09/22 04:35:52;;;;;;;12.73;2.60;;;;;;;18.80;100.00;93585.84;5044891;28;20041;-82
2023/09/22 04:38:18;;;;;;;11.75;2.50;;;;;;;18.69;100.00;93590.88;5034961;28;20040;-82
2023/09/22 04:40:45;;;;;;;6.97;2.47;;;;;;;18.70;100.00;93588.97;5035228;28;20029;-82
2023/09/22 04:43:13;;;;;;;13.00;2.67;;;;;;;18.72;100.00;93590.19;5035361;28;20034;-82
2023/09/22 04:45:43;;;;;;;5.10;2.10;;;;;;;18.70;100.00;93579.16;5035060;28;20082;-82
2023/09/22 04:48:10;;;;;;;10.75;2.50;;;;;;;18.60;100.00;93598.97;5035115;28;20030;-82
2023/09/22 04:50:36;;;;;;;7.28;2.47;;;;;;;18.76;100.00;93591.06;5018738;28;20075;-81
2023/09/22 04:53:02;;;;;;;10.85;2.40;;;;;;;18.65;100.00;93605.94;5054581;28;20116;-82
2023/09/22 04:55:31;;;;;;;10.93;2.40;;;;;;;18.68;100.00;93583.25;5054599;28;20109;-82
2023/09/22 04:57:56;;;;;;;6.07;2.30;;;;;;;18.67;100.00;93582.47;5038779;28;20032;-82
2023/09/22 05:00:24;;;;;;;11.52;2.28;;;;;;;18.75;100.00;93592.16;5057655;28;20029;-81
2023/09/22 05:02:54;;;;;;;11.32;2.50;;;;;;;18.76;100.00;93580.44;5058795;28;20032;-81
2023/09/22 05:05:19;;;;;;;12.95;2.50;;;;;;;18.58;100.00;93603.06;5058408;28;20430;-81
2023/09/22 05:07:49;;;;;;;6.93;2.42;;;;;;;18.79;100.00;93590.41;5057950;28;20085;-81
2023/09/22 05:10:14;;;;;;;8.75;2.67;;;;;;;18.77;100.00;93599.78;5057532;28;20102;-81
2023/09/22 05:12:40;;;;;;;12.13;2.60;;;;;;;18.80;100.00;93617.69;5057996;28;20029;-81
2023/09/22 05:15:06;;;;;;;6.10;2.00;;;;;;;18.76;100.00;93617.59;5057607;28;20029;-81
2023/09/22 05:17:32;;;;;;;7.43;2.50;;;;;;;18.71;100.00;93603.78;5057820;28;20033;-81
2023/09/22 05:19:58;;;;;;;10.85;2.38;;;;;;;18.86;100.00;93597.00;5058313;28;20366;-81
2023/09/22 05:22:24;;;;;;;11.25;2.30;;;;;;;18.93;100.00;93613.09;5041603;28;20032;-81
2023/09/22 05:24:49;;;;;;;9.13;2.35;;;;;;;18.85;100.00;93614.03;5058288;28;20422;-81
2023/09/22 05:27:15;;;;;;;14.32;2.40;;;;;;;18.82;100.00;93598.78;5041550;28;20029;-81
2023/09/22 05:29:44;;;;;;;9.50;2.63;;;;;;;18.77;100.00;93594.50;5058446;28;20047;-82
2023/09/22 05:32:12;;;;;;;6.28;2.70;;;;;;;18.79;100.00;93595.72;5057816;28;20418;-81
2023/09/22 05:34:39;;;;;;;11.50;2.47;;;;;;;18.78;100.00;93588.06;5041898;28;20051;-81
2023/09/22 05:37:05;;;;;;;6.85;2.40;;;;;;;18.75;100.00;93610.75;5057833;28;20021;-81
2023/09/22 05:39:30;;;;;;;10.90;2.50;;;;;;;18.79;100.00;93594.91;5057878;28;20337;-81
2023/09/22 05:41:56;;;;;;;11.93;2.50;;;;;;;18.72;100.00;93606.09;5057683;28;20165;-81
2023/09/22 05:44:22;;;;;;;8.95;2.53;;;;;;;18.73;100.00;93598.94;5058834;28;20025;-81
2023/09/22 05:46:50;;;;;;;8.70;2.17;;;;;;;18.63;100.00;93605.47;5058821;28;20025;-81
2023/09/22 05:49:15;;;;;;;10.65;2.83;;;;;;;18.76;100.00;93572.47;5057633;28;20403;-81
2023/09/22 05:51:41;;;;;;;10.68;2.40;;;;;;;18.82;100.00;93596.13;5057165;28;20025;-81
2023/09/22 05:54:07;;;;;;;12.27;2.65;;;;;;;18.83;100.00;93565.84;5057604;28;20063;-81
2023/09/22 05:56:33;;;;;;;11.73;3.13;;;;;;;18.84;100.00;93575.34;5057573;28;20025;-81
2023/09/22 05:58:58;;;;;;;8.55;2.70;;;;;;;18.80;100.00;93572.59;5040999;28;20345;-81
2023/09/22 06:01:24;;;;;;;11.40;2.92;;;;;;;18.80;100.00;93569.94;5057410;28;20426;-81
2023/09/22 06:03:49;;;;;;;9.63;2.78;;;;;;;18.87;100.00;93572.00;5057396;28;20039;-81
2023/09/22 06:06:15;;;;;;;14.10;3.47;;;;;;;18.91;100.00;93575.50;5057253;28;20077;-81
2023/09/22 06:08:44;;;;;;;10.82;3.15;;;;;;;19.09;100.00;93581.31;5057159;28;20116;-81
2023/09/22 06:11:10;;;;;;;9.73;2.58;;;;;;;19.01;100.00;93582.22;5040007;28;20123;-81
2023/09/22 06:13:36;;;;;;;8.65;2.65;;;;;;;19.06;100.00;93582.75;5057368;28;20025;-81
2023/09/22 06:16:02;;;;;;;9.05;2.78;;;;;;;19.12;100.00;93577.97;5057126;28;20056;-81
2023/09/22 06:18:28;;;;;;;10.68;2.83;;;;;;;19.24;100.00;93579.81;5057007;28;20112;-81
2023/09/22 06:20:55;;;;;;;17.60;3.58;;;;;;;19.25;100.00;93584.00;5057086;28;20124;-81
2023/09/22 06:23:21;;;;;;;11.63;2.90;;;;;;;19.31;100.00;93584.53;5056976;28;20426;-81
2023/09/22 06:25:47;;;;;;;11.95;3.20;;;;;;;19.41;100.00;93578.69;5056993;28;20040;-81
2023/09/22 06:28:14;;;;;;;11.88;3.05;;;;;;;19.59;100.00;93565.06;5058013;28;20020;-81
2023/09/22 06:30:41;;;;;;;11.48;3.00;;;;;;;19.67;100.00;93563.34;5057119;28;20025;-81
2023/09/22 06:33:07;;;;;;;15.40;3.35;;;;;;;19.86;100.00;93562.63;5058078;28;20017;-81
2023/09/22 06:35:33;;;;;;;12.38;3.53;;;;;;;19.96;100.00;93574.66;5056834;28;20349;-82
2023/09/22 06:37:58;;;;;;;13.43;3.95;;;;;;;19.84;100.00;93564.84;5056696;28;20025;-81
2023/09/22 06:40:24;;;;;;;17.17;2.88;;;;;;;19.94;100.00;93582.19;5057826;28;20327;-81
2023/09/22 06:42:49;;;;;;;19.73;3.45;;;;;;;19.84;100.00;93575.47;5056621;28;20039;-82
2023/09/22 06:45:16;;;;;;;11.50;3.38;;;;;;;19.93;100.00;93565.47;5056547;28;20064;-81
2023/09/22 06:47:42;;;;;;;10.52;3.05;;;;;;;19.91;100.00;93557.81;5057636;28;20032;-81
2023/09/22 06:50:08;;;;;;;13.57;3.50;;;;;;;20.14;100.00;93564.38;5056571;28;20434;-81
2023/09/22 06:52:34;;;;;;;17.17;3.35;;;;;;;20.33;100.00;93556.44;5057617;28;20021;-81
2023/09/22 06:55:02;;;;;;;12.10;3.40;;;;;;;20.35;100.00;93556.09;5056526;28;20079;-81
2023/09/22 06:57:32;;;;;;;10.95;3.30;;;;;;;20.51;100.00;93556.03;5056199;28;20055;-81
2023/09/22 06:59:58;;;;;;;11.50;2.92;;;;;;;20.64;100.00;93577.94;5056366;28;20078;-82
2023/09/22 07:02:24;;;;;;;11.93;3.13;;;;;;;20.41;100.00;93583.97;5039637;28;20039;-82
2023/09/22 07:04:50;;;;;;;9.57;3.05;;;;;;;20.42;100.00;93572.19;5057484;28;20028;-82
2023/09/22 07:07:15;;;;;;;11.55;3.65;;;;;;;20.53;100.00;93584.97;5056138;28;20024;-81
2023/09/22 07:09:44;;;;;;;12.77;2.97;;;;;;;20.43;100.00;93578.28;5055995;28;20025;-81
2023/09/22 07:12:09;;;;;;;14.40;3.70;;;;;;;20.53;100.00;93582.28;5056124;28;20048;-81
2023/09/22 07:14:36;;;;;;;15.38;3.05;;;;;;;20.34;100.00;93575.81;5056135;28;20052;-81
2023/09/22 07:17:02;;;;;;;13.40;3.20;;;;;;;20.42;100.00;93580.19;5056421;28;20338;-81
2023/09/22 07:19:28;;;;;;;10.65;3.13;;;;;;;20.36;100.00;93584.22;5055815;28;20187;-81
2023/09/22 07:21:54;;;;;;;10.18;3.13;;;;;;;20.30;100.00;93606.91;5039274;28;20131;-81
2023/09/22 07:24:19;;;;;;;10.15;3.00;;;;;;;20.21;100.00;93596.47;5055950;28;20401;-81
2023/09/22 07:26:45;;;;;;;10.98;2.75;;;;;;;20.17;100.00;93603.59;5055878;28;20438;-82
2023/09/22 07:29:10;;;;;;;15.60;3.35;;;;;;;20.23;100.00;93602.19;5055629;28;20031;-81
2023/09/22 07:31:37;;;;;;;9.07;2.60;;;;;;;20.24;100.00;93593.09;5039366;28;20017;-81
2023/09/22 07:34:03;;;;;;;14.85;3.40;;;;;;;20.34;100.00;93603.22;5055795;28;20025;-81
2023/09/22 07:36:28;;;;;;;12.40;3.20;;;;;;;20.47;100.00;93619.81;5055717;28;20418;-81
2023/09/22 07:38:54;;;;;;;8.35;2.95;;;;;;;20.39;100.00;93590.75;5056797;28;20025;-81
2023/09/22 07:41:19;;;;;;;16.75;2.95;;;;;;;20.48;100.00;93602.72;5055494;28;20452;-81
2023/09/22 07:43:45;;;;;;;9.27;2.83;;;;;;;20.39;100.00;93610.16;5055620;28;20029;-81
2023/09/22 07:46:10;;;;;;;17.52;3.63;;;;;;;20.32;100.00;93609.97;5038964;28;20036;-82
2023/09/22 07:48:37;;;;;;;15.00;3.05;;;;;;;20.23;100.00;93639.44;5055422;28;20497;-82
2023/09/22 07:51:04;;;;;;;12.25;2.80;;;;;;;20.24;100.00;93643.63;5055591;28;20025;-81
2023/09/22 07:53:30;;;;;;;10.45;3.03;;;;;;;20.21;100.00;93654.97;5055390;28;20020;-81
2023/09/22 07:55:59;;;;;;;13.02;3.10;;;;;;;20.31;100.00;93654.44;5055485;28;20335;-81
2023/09/22 07:58:25;;;;;;;8.27;2.97;;;;;;;20.18;100.00;93651.09;5055288;28;20025;-82
2023/09/22 08:00:52;;;;;;;13.60;3.03;;;;;;;20.25;100.00;93657.72;5039025;28;20128;-82
2023/09/22 08:03:18;;;;;;;9.77;2.70;;;;;;;20.39;100.00;93650.06;5038595;28;20044;-81
2023/09/22 08:05:45;;;;;;;14.73;3.10;;;;;;;20.38;100.00;93659.16;5038970;28;20040;-81
2023/09/22 08:08:10;;;;;;;13.00;3.08;;;;;;;20.16;100.00;93648.03;5038806;28;20029;-81
2023/09/22 08:10:38;;;;;;;10.70;3.20;;;;;;;20.12;100.00;93667.66;5038833;28;20112;-81
2023/09/22 08:13:07;;;;;;;9.93;3.00;;;;;;;20.12;100.00;93670.31;5039083;28;20087;-81
2023/09/22 08:15:37;;;;;;;8.30;3.08;;;;;;;20.08;100.00;93669.47;5055336;28;20025;-81
2023/09/22 08:18:05;;;;;;;11.70;2.83;;;;;;;20.17;100.00;93662.09;5055217;28;20143;-81
2023/09/22 08:20:32;;;;;;;9.10;2.83;;;;;;;20.05;100.00;93673.59;5038919;28;20104;-82
2023/09/22 08:22:58;;;;;;;15.40;3.47;;;;;;;20.14;100.00;93663.56;5055137;28;20029;-81
2023/09/22 08:25:25;;;;;;;12.30;2.97;;;;;;;20.09;100.00;93673.69;5039381;28;20053;-82
2023/09/22 08:27:52;;;;;;;13.40;2.90;;;;;;;20.13;100.00;93661.22;5055025;28;20430;-82
2023/09/22 08:30:19;;;;;;;13.73;2.78;;;;;;;20.23;100.00;93654.59;5055153;28;20492;-81
2023/09/22 08:32:45;;;;;;;13.25;2.70;;;;;;;20.05;100.00;93639.81;5055104;28;20025;-82
2023/09/22 08:35:12;;;;;;;18.13;2.97;;;;;;;20.17;100.00;93649.56;5058831;28;20033;-82
2023/09/22 08:37:42;;;;;;;8.15;2.97;;;;;;;20.22;100.00;93647.75;5058946;28;20033;-82
2023/09/22 08:40:11;;;;;;;13.55;3.63;;;;;;;20.20;100.00;93648.13;5059150;28;20033;-82
2023/09/22 08:42:37;;;;;;;10.75;2.90;;;;;;;20.39;100.00;93647.38;5058942;28;20037;-82
2023/09/22 08:45:03;;;;;;;10.18;2.83;;;;;;;20.76;100.00;93630.28;5058910;28;20358;-81
2023/09/22 08:47:28;;;;;;;14.73;2.65;;;;;;;21.12;100.00;93644.28;5058673;28;20033;-82
2023/09/22 08:49:54;;;;;;;10.48;2.70;;;;;;;20.93;100.00;93654.97;5058645;28;20083;-81
2023/09/22 08:52:22;;;;;;;12.82;3.22;;;;;;;20.87;100.00;93665.13;5058784;28;20072;-82
2023/09/22 08:54:48;;;;;;;11.73;2.33;;;;;;;20.88;100.00;93671.97;5058677;28;20033;-82
2023/09/22 08:57:14;;;;;;;7.30;2.50;;;;;;;21.14;100.00;93673.25;5058586;28;20354;-82
2023/09/22 08:59:41;;;;;;;8.32;2.58;;;;;;;21.65;100.00;93671.47;5058635;28;20033;-82
2023/09/22 09:02:08;;;;;;;10.55;2.90;;;;;;;22.53;100.00;93666.41;5058539;28;20438;-82
2023/09/22 09:04:39;;;;;;;13.98;2.75;;;;;;;22.77;100.00;93672.41;5042191;28;20039;-82
2023/09/22 09:07:08;;;;;;;11.48;2.83;;;;;;;22.46;100.00;93675.06;5042495;28;20388;-82
2023/09/22 09:09:43;;;;;;;12.93;2.95;;;;;;;22.33;100.00;93674.47;5058437;28;20036;-82
2023/09/22 09:12:10;;;;;;;13.82;3.10;;;;;;;22.24;100.00;93661.38;5042028;28;20021;-82
2023/09/22 09:14:42;;;;;;;15.90;3.25;;;;;;;22.10;100.00;93656.63;5058261;28;20024;-82
2023/09/22 09:17:22;;;;;;;10.35;2.83;;;;;;;22.60;100.00;93650.47;5058207;28;20041;-82
2023/09/22 09:20:01;;;;;;;10.70;2.50;;;;;;;22.01;98.68;93659.50;5041887;28;20082;-82
2023/09/22 09:22:37;;;;;;;6.93;2.25;;;;;;;21.65;100.00;93634.16;5058139;28;20033;-82
2023/09/22 09:25:09;;;;;;;15.85;2.45;;;;;;;21.91;100.00;93643.34;5058349;28;20111;-82
2023/09/22 09:27:34;;;;;;;7.82;2.08;;;;;;;21.61;100.00;93645.53;5058066;28;20123;-82
2023/09/22 09:30:06;;;;;;;12.27;2.28;;;;;;;21.36;100.00;93647.78;5058156;28;20514;-82
2023/09/22 09:32:32;;;;;;;10.00;2.80;;;;;;;21.45;100.00;93652.88;5058128;28;20025;-82
2023/09/22 09:34:58;;;;;;;9.88;2.20;;;;;;;21.29;100.00;93643.09;5058026;28;20346;-81
2023/09/22 09:37:23;;;;;;;6.53;2.28;;;;;;;21.09;100.00;93644.22;5057906;28;20102;-81
2023/09/22 09:39:54;;;;;;;11.50;2.70;;;;;;;21.02;100.00;93666.19;5059054;28;20032;-81
2023/09/22 09:42:23;;;;;;;7.90;2.75;;;;;;;20.95;100.00;93656.16;5041784;28;20131;-81
2023/09/22 09:44:51;;;;;;;12.60;2.45;;;;;;;20.97;100.00;93656.56;5041136;28;20444;-81
2023/09/22 09:47:36;;;;;;;12.63;2.17;;;;;;;20.92;100.00;93648.09;5057104;28;20036;-81
2023/09/22 09:50:05;;;;;;;9.15;2.22;;;;;;;21.26;100.00;93675.75;5052642;28;20480;-81
2023/09/22 09:52:37;;;;;;;12.00;2.95;;;;;;;20.94;100.00;93641.28;5037689;28;20036;-81
2023/09/22 09:55:14;;;;;;;11.90;2.40;;;;;;;20.90;100.00;93648.44;5021498;28;20033;-82
2023/09/22 09:57:43;;;;;;;11.18;2.42;;;;;;;20.75;100.00;93671.31;5037911;28;20083;-81
2023/09/22 10:00:28;;;;;;;9.43;2.67;;;;;;;20.00;100.00;93665.88;5037640;28;20116;-81
2023/09/22 10:02:58;;;;;;;9.88;2.17;;;;;;;19.91;100.00;93652.75;5023595;28;20115;-81
2023/09/22 10:05:23;;;;;;;13.88;2.50;;;;;;;19.98;100.00;93658.25;5037524;28;20025;-81
2023/09/22 10:07:56;;;;;;;6.95;2.22;;;;;;;19.71;100.00;93655.31;5037339;28;20095;-81
2023/09/22 10:10:22;;;;;;;12.50;2.58;;;;;;;19.47;100.00;93661.53;5021855;28;20036;-81
2023/09/22 10:12:48;;;;;;;6.38;2.15;;;;;;;19.56;100.00;93659.50;5037371;28;20057;-81
2023/09/22 10:15:14;;;;;;;7.00;2.30;;;;;;;19.55;100.00;93668.59;5020918;28;20445;-81
2023/09/22 10:17:39;;;;;;;7.20;2.28;;;;;;;19.77;100.00;93661.13;5037113;28;20466;-81
2023/09/22 10:20:07;;;;;;;8.57;2.67;;;;;;;19.92;100.00;93647.09;5020883;28;20037;-81
2023/09/22 10:22:35;;;;;;;7.30;2.13;;;;;;;19.85;100.00;93643.47;5037073;28;20056;-81
2023/09/22 10:25:13;;;;;;;8.55;2.50;;;;;;;19.99;100.00;93637.75;5037102;28;20110;-81
2023/09/22 10:28:02;;;;;;;11.75;2.53;;;;;;;20.19;100.00;93635.94;5036989;28;20370;-81
2023/09/22 10:30:43;;;;;;;8.52;2.20;;;;;;;20.12;100.00;93665.78;5037364;28;20087;-81
2023/09/22 10:33:26;;;;;;;5.20;2.20;;;;;;;19.77;100.00;93659.25;5038133;28;20029;-81
2023/09/22 10:35:53;;;;;;;8.40;2.47;;;;;;;19.75;100.00;93658.84;5037068;28;20598;-81
2023/09/22 10:38:21;;;;;;;11.05;2.15;;;;;;;19.67;100.00;93662.41;5036668;28;20040;-81
2023/09/22 10:41:14;;;;;;;5.78;2.05;;;;;;;19.72;100.00;93664.81;5037420;28;20478;-81
2023/09/22 10:43:56;;;;;;;5.75;2.60;;;;;;;19.59;100.00;93653.50;5018588;28;20061;-81
2023/09/22 10:46:22;;;;;;;8.48;1.92;;;;;;;19.72;100.00;93651.53;5037021;28;20072;-81
2023/09/22 10:48:48;;;;;;;9.02;2.30;;;;;;;20.02;100.00;93637.84;5036547;28;20064;-81
2023/09/22 10:51:14;;;;;;;6.13;2.05;;;;;;;20.73;100.00;93642.38;5036619;28;20108;-81
2023/09/22 10:53:40;;;;;;;5.07;1.80;;;;;;;20.52;100.00;93631.31;5053314;28;20028;-81
2023/09/22 10:56:05;;;;;;;5.95;2.20;;;;;;;20.84;100.00;93617.91;5020175;28;20025;-81
2023/09/22 10:58:31;;;;;;;7.32;2.00;;;;;;;21.18;100.00;93618.91;5039929;28;20049;-81
2023/09/22 11:00:58;;;;;;;6.72;1.90;;;;;;;21.61;100.00;93602.13;5039148;28;20033;-81
2023/09/22 11:03:24;;;;;;;5.85;1.63;;;;;;;21.93;100.00;93617.88;5052984;28;20021;-81
2023/09/22 11:06:00;;;;;;;7.25;1.88;;;;;;;22.21;100.00;93623.97;5039810;28;20020;-82
2023/09/22 11:08:26;;;;;;;9.32;1.90;;;;;;;21.66;100.00;93636.50;5056150;28;20036;-81
2023/09/22 11:10:56;;;;;;;7.53;1.83;;;;;;;21.75;100.00;93628.25;5056163;28;20378;-82
2023/09/22 11:13:22;;;;;;;10.70;1.80;;;;;;;21.45;100.00;93623.56;5039588;28;20055;-81
2023/09/22 11:15:53;;;;;;;8.23;1.70;;;;;;;21.53;100.00;93625.22;5056086;28;20394;-82
2023/09/22 11:18:26;;;;;;;13.23;2.05;;;;;;;21.05;100.00;93618.28;5055845;28;20051;-82